Time;durP1;ratioP1;P1;durP2;ratioP2;P2;SDS_P1;SDS_P2;PMS_P1;PMS_P2;Temp;Humidity;BMP_temperature;BMP_pressure;BME280_temperature;BME280_humidity;BME280_pressure;Samples;Min_cycle;Max_cycle;Signal;HPM_P1;HPM_P2
2021/06/26 00:02:26;;;;;;;9.23;8.43;;;18.70;98.30;;;;;;5190549;22;20471;-84
2021/06/26 00:07:51;;;;;;;9.20;8.30;;;18.80;98.30;;;;;;5191704;22;20493;-84
2021/06/26 00:10:47;;;;;;;10.53;9.40;;;18.70;98.30;;;;;;5201739;22;20427;-85
2021/06/26 00:13:06;;;;;;;9.20;7.97;;;18.70;98.30;;;;;;5192302;22;20930;-84
2021/06/26 00:15:23;;;;;;;11.10;9.40;;;18.70;98.30;;;;;;5200130;22;20729;-84
2021/06/26 00:33:57;;;;;;;10.87;9.50;;;18.20;98.30;;;;;;5219783;22;20418;-84
2021/06/26 00:36:13;;;;;;;10.50;9.50;;;18.10;98.30;;;;;;5216934;22;20431;-85
2021/06/26 00:38:44;;;;;;;10.07;9.17;;;18.20;98.30;;;;;;5218229;22;20418;-85
2021/06/26 00:41:04;;;;;;;10.10;9.13;;;18.10;98.30;;;;;;5216832;22;20471;-85
2021/06/26 00:43:26;;;;;;;11.07;9.73;;;18.20;98.30;;;;;;5205430;22;20425;-84
2021/06/26 00:45:35;;;;;;;9.23;8.33;;;18.50;98.30;;;;;;5201962;22;20705;-84
2021/06/26 00:47:42;;;;;;;10.20;9.20;;;18.60;98.30;;;;;;5203576;22;20418;-83
2021/06/26 00:50:42;;;;;;;11.30;9.23;;;18.60;98.30;;;;;;5194033;22;20434;-81
2021/06/26 00:53:26;;;;;;;10.40;9.43;;;18.60;98.30;;;;;;5167887;22;20500;-81
2021/06/26 01:13:21;;;;;;;11.13;9.40;;;18.70;98.30;;;;;;5065035;23;20435;-82
2021/06/26 02:20:01;;;;;;;12.17;10.87;;;18.60;98.30;;;;;;5028541;22;3094855;-82
2021/06/26 02:35:06;;;;;;;10.17;9.17;;;18.50;98.30;;;;;;5024059;23;20499;-82
2021/06/26 02:43:59;;;;;;;11.50;9.90;;;18.50;98.30;;;;;;5008102;23;20531;-83
2021/06/26 02:47:12;;;;;;;11.53;10.10;;;18.50;98.30;;;;;;4920311;23;20977;-83
2021/06/26 02:49:21;;;;;;;12.00;10.80;;;18.50;98.30;;;;;;5031367;23;20488;-82
2021/06/26 02:51:34;;;;;;;9.83;8.83;;;18.50;98.30;;;;;;5007421;23;20474;-82
2021/06/26 02:53:44;;;;;;;10.87;9.80;;;18.50;98.30;;;;;;5031923;23;20459;-82
2021/06/26 03:44:14;;;;;;;27.07;22.80;;;18.40;98.30;;;;;;4950462;23;20490;-83
2021/06/26 03:47:03;;;;;;;26.43;22.47;;;18.40;98.30;;;;;;5004072;23;21090;-83
2021/06/26 03:49:37;;;;;;;34.80;28.03;;;18.40;98.30;;;;;;5003334;23;20446;-83
2021/06/26 03:52:07;;;;;;;31.97;25.63;;;18.40;98.30;;;;;;5013684;23;20451;-83
2021/06/26 04:01:24;;;;;;;28.43;23.27;;;18.60;98.30;;;;;;5049069;23;20508;-85
2021/06/26 04:35:13;;;;;;;16.40;13.27;;;18.50;98.30;;;;;;4936682;24;20414;-84
2021/06/26 04:43:50;;;;;;;13.33;11.93;;;18.30;98.30;;;;;;4965746;23;20652;-84
2021/06/26 04:45:56;;;;;;;15.07;13.03;;;18.30;98.30;;;;;;4975245;23;20436;-83
2021/06/26 04:48:03;;;;;;;18.47;16.37;;;18.20;98.30;;;;;;4976216;23;20436;-85
2021/06/26 04:50:46;;;;;;;15.50;13.90;;;18.30;98.30;;;;;;4940956;24;21168;-84
2021/06/26 04:52:51;;;;;;;14.60;13.10;;;18.20;98.30;;;;;;4968417;23;21222;-83
2021/06/26 04:55:00;;;;;;;14.57;13.07;;;18.20;98.30;;;;;;4960469;24;20436;-83
2021/06/26 04:57:39;;;;;;;16.03;12.73;;;18.00;98.30;;;;;;4949742;24;20433;-83
2021/06/26 05:00:25;;;;;;;14.67;13.07;;;18.00;98.30;;;;;;4950446;23;20432;-83
2021/06/26 05:03:17;;;;;;;14.00;11.97;;;18.00;98.30;;;;;;4998147;23;20951;-83
2021/06/26 05:05:22;;;;;;;14.43;12.87;;;18.10;98.30;;;;;;5111566;23;20958;-83
2021/06/26 05:19:17;;;;;;;12.97;11.53;;;18.10;98.30;;;;;;5050981;23;20482;-84
2021/06/26 05:22:19;;;;;;;14.47;12.97;;;18.20;98.30;;;;;;5049384;23;20457;-83
2021/06/26 05:25:18;;;;;;;15.37;13.20;;;18.20;98.30;;;;;;5052377;23;20613;-82
2021/06/26 05:27:35;;;;;;;18.97;16.63;;;18.40;98.30;;;;;;5059303;23;20981;-83
2021/06/26 05:30:00;;;;;;;24.13;20.23;;;18.40;98.30;;;;;;5053070;23;20865;-84
2021/06/26 05:42:33;;;;;;;32.90;26.33;;;18.80;98.30;;;;;;5073029;23;20459;-83
2021/06/26 05:45:13;;;;;;;21.33;18.57;;;18.90;98.30;;;;;;5084672;23;20457;-83
2021/06/26 05:47:37;;;;;;;18.10;16.17;;;18.90;98.30;;;;;;5078569;23;20462;-84
2021/06/26 05:49:57;;;;;;;23.60;21.10;;;19.00;98.30;;;;;;5079579;23;20418;-83
2021/06/26 05:53:12;;;;;;;20.10;18.00;;;19.20;98.30;;;;;;5157263;22;20455;-83
2021/06/26 05:55:27;;;;;;;16.53;14.87;;;19.30;98.30;;;;;;5055513;23;20433;-84
2021/06/26 05:57:59;;;;;;;13.70;12.40;;;19.40;98.30;;;;;;5157335;23;20443;-83
2021/06/26 06:00:20;;;;;;;18.20;14.67;;;19.40;98.30;;;;;;5177626;23;20474;-84
2021/06/26 06:02:42;;;;;;;15.73;14.13;;;19.50;98.30;;;;;;5186721;22;20474;-83
2021/06/26 09:02:27;;;;;;;16.03;14.40;;;23.40;90.70;;;;;;5161785;22;20998;-83
2021/06/26 09:08:37;;;;;;;18.20;16.30;;;23.60;90.10;;;;;;5063100;23;20410;-82
2021/06/26 09:15:00;;;;;;;33.93;29.73;;;23.60;90.20;;;;;;4954094;23;20455;-83
2021/06/26 09:46:00;;;;;;;37.50;33.77;;;24.30;89.90;;;;;;4861977;24;20795;-85
2021/06/26 11:12:26;;;;;;;13.83;12.30;;;26.60;82.60;;;;;;5141268;23;20503;-83
2021/06/26 11:15:25;;;;;;;15.80;14.40;;;26.60;83.90;;;;;;5142082;23;20448;-84
2021/06/26 11:17:56;;;;;;;17.63;15.73;;;26.60;82.60;;;;;;5143342;23;20474;-84
2021/06/26 15:00:21;;;;;;;12.00;10.87;;;28.00;80.50;;;;;;5160857;22;21113;-83
2021/06/26 15:02:28;;;;;;;12.97;10.93;;;27.90;80.70;;;;;;5176718;23;20446;-83
2021/06/26 15:04:34;;;;;;;12.20;11.20;;;27.60;81.70;;;;;;5177081;23;20517;-82
2021/06/26 15:06:40;;;;;;;12.20;10.90;;;27.50;82.00;;;;;;5176674;23;20451;-84
2021/06/26 15:08:45;;;;;;;11.37;10.40;;;27.20;82.80;;;;;;5176808;23;20863;-83
2021/06/26 15:11:10;;;;;;;11.20;10.07;;;27.10;83.30;;;;;;5143681;23;20417;-83
2021/06/26 15:13:15;;;;;;;13.07;11.87;;;26.80;84.00;;;;;;5153864;23;20419;-82
2021/06/26 15:15:29;;;;;;;12.13;10.83;;;26.70;84.70;;;;;;5153875;23;20448;-82
2021/06/26 15:17:32;;;;;;;12.00;10.90;;;26.50;84.50;;;;;;5153610;23;20893;-82
2021/06/26 15:19:35;;;;;;;11.00;10.00;;;26.40;84.30;;;;;;5152887;23;20459;-83
2021/06/26 15:21:38;;;;;;;12.27;11.10;;;26.30;85.50;;;;;;5144469;23;20528;-83
2021/06/26 15:23:43;;;;;;;12.23;10.97;;;26.20;85.50;;;;;;5153608;23;20504;-83
2021/06/26 15:25:46;;;;;;;12.33;11.10;;;26.20;85.80;;;;;;5153340;23;20427;-83
2021/06/26 15:27:49;;;;;;;10.83;9.77;;;26.10;86.60;;;;;;5153679;23;20425;-83
2021/06/26 15:29:52;;;;;;;12.40;11.20;;;26.10;87.10;;;;;;5159780;23;20445;-82
2021/06/26 15:31:56;;;;;;;13.93;10.90;;;26.10;86.80;;;;;;5152103;23;20755;-83
2021/06/26 15:33:59;;;;;;;13.10;10.10;;;26.20;87.10;;;;;;5152465;23;20471;-83
2021/06/26 15:36:02;;;;;;;10.87;9.77;;;26.10;86.90;;;;;;5152564;23;20441;-83
2021/06/26 15:38:06;;;;;;;11.07;10.17;;;26.20;86.80;;;;;;5144354;23;20428;-83
2021/06/26 15:40:10;;;;;;;10.10;9.30;;;26.30;86.10;;;;;;5153274;23;20808;-83
2021/06/26 15:42:13;;;;;;;11.13;10.13;;;26.30;86.10;;;;;;5152287;23;20461;-82
2021/06/26 15:44:17;;;;;;;11.40;10.30;;;26.40;86.20;;;;;;5144319;23;20496;-82
2021/06/26 15:46:20;;;;;;;12.83;10.90;;;26.40;86.40;;;;;;5152530;23;20419;-82
2021/06/26 15:48:26;;;;;;;12.80;11.70;;;26.40;86.40;;;;;;5152099;23;20432;-82
2021/06/26 15:50:29;;;;;;;22.87;20.53;;;26.40;85.80;;;;;;5151171;23;20922;-83
2021/06/26 15:52:33;;;;;;;15.67;14.27;;;26.20;86.40;;;;;;5151167;23;20991;-83
2021/06/26 15:54:37;;;;;;;22.33;20.00;;;26.40;85.80;;;;;;5143224;23;20464;-83
2021/06/26 15:56:40;;;;;;;16.27;14.60;;;26.40;85.20;;;;;;5151366;23;20983;-83
2021/06/26 15:58:43;;;;;;;13.37;12.10;;;26.50;84.70;;;;;;5151183;23;20785;-82
2021/06/26 16:00:46;;;;;;;11.93;10.93;;;26.50;84.70;;;;;;5150943;23;20539;-82
2021/06/26 16:02:49;;;;;;;10.87;9.97;;;26.30;84.90;;;;;;5151425;23;20463;-83
2021/06/26 16:04:53;;;;;;;11.33;10.33;;;26.40;85.90;;;;;;5143583;23;20439;-83
2021/06/26 16:06:56;;;;;;;12.03;9.90;;;26.40;86.40;;;;;;5151898;23;20425;-83
2021/06/26 16:09:03;;;;;;;14.50;11.20;;;26.20;87.00;;;;;;5146157;23;20477;-83
2021/06/26 16:11:07;;;;;;;13.20;12.07;;;26.00;86.50;;;;;;5151215;23;20425;-82
2021/06/26 16:13:10;;;;;;;11.57;10.47;;;26.00;86.80;;;;;;5144352;23;20504;-83
2021/06/26 16:15:14;;;;;;;11.07;9.90;;;26.00;87.10;;;;;;5151890;23;20813;-83
2021/06/26 16:17:17;;;;;;;11.40;10.20;;;25.90;87.50;;;;;;5152285;23;20468;-83
2021/06/26 16:19:19;;;;;;;12.67;10.40;;;25.80;87.90;;;;;;5143768;23;20471;-82
2021/06/26 16:21:24;;;;;;;12.33;11.13;;;25.70;87.60;;;;;;5151564;23;20464;-82
2021/06/26 16:23:27;;;;;;;13.07;11.77;;;25.50;88.10;;;;;;5143917;23;20498;-82
2021/06/26 16:25:30;;;;;;;14.00;12.60;;;25.00;89.60;;;;;;5144465;23;20429;-82
2021/06/26 16:27:34;;;;;;;15.33;13.83;;;24.80;90.30;;;;;;5152747;23;20424;-82
2021/06/26 16:29:38;;;;;;;18.20;16.43;;;24.90;90.30;;;;;;5152883;23;20523;-82
2021/06/26 16:31:40;;;;;;;12.63;11.53;;;25.00;90.10;;;;;;5152716;23;20429;-83
2021/06/26 16:33:43;;;;;;;13.30;12.10;;;24.60;91.30;;;;;;5153948;23;20424;-82
2021/06/26 16:35:47;;;;;;;14.93;13.40;;;24.70;91.50;;;;;;5153222;23;20764;-83
2021/06/26 16:37:57;;;;;;;13.83;12.43;;;24.80;91.50;;;;;;5153845;23;20500;-83
2021/06/26 16:40:00;;;;;;;16.93;15.20;;;24.90;90.70;;;;;;5153919;23;20509;-83
2021/06/26 16:42:05;;;;;;;17.37;14.43;;;24.90;90.20;;;;;;5153801;23;20429;-83
2021/06/26 16:44:08;;;;;;;15.10;13.60;;;24.90;90.60;;;;;;5154102;23;20429;-82
2021/06/26 16:46:11;;;;;;;13.10;11.80;;;24.80;90.60;;;;;;5146780;23;20453;-83
2021/06/26 16:48:15;;;;;;;14.40;13.00;;;24.70;90.80;;;;;;5155223;23;20428;-82
2021/06/26 16:50:18;;;;;;;17.37;14.47;;;24.80;90.70;;;;;;5155522;23;20473;-83
2021/06/26 16:52:21;;;;;;;18.53;14.30;;;24.80;91.80;;;;;;5144401;23;20512;-82
2021/06/26 16:54:25;;;;;;;12.70;11.50;;;24.80;92.10;;;;;;5151476;23;20451;-83
2021/06/26 16:56:28;;;;;;;13.23;11.93;;;24.80;91.90;;;;;;5151625;23;20540;-82
2021/06/26 16:58:33;;;;;;;13.20;11.83;;;24.80;91.90;;;;;;5151006;23;20778;-82
2021/06/26 17:00:40;;;;;;;13.00;11.70;;;24.80;91.40;;;;;;5150471;23;20454;-82
2021/06/26 17:02:43;;;;;;;13.00;11.23;;;24.80;91.40;;;;;;5142766;23;20429;-83
2021/06/26 17:04:46;;;;;;;12.80;11.57;;;24.90;91.90;;;;;;5151042;23;20483;-83
2021/06/26 17:06:49;;;;;;;13.73;11.50;;;24.90;91.80;;;;;;5151364;23;20421;-83
2021/06/26 17:08:52;;;;;;;13.90;11.67;;;24.90;91.80;;;;;;5151519;23;20421;-82
2021/06/26 17:10:56;;;;;;;12.70;11.40;;;24.90;92.20;;;;;;5152326;23;20504;-82
2021/06/26 17:12:59;;;;;;;12.93;11.70;;;24.80;92.20;;;;;;5152149;23;20439;-82
2021/06/26 17:15:02;;;;;;;14.37;12.30;;;24.80;92.10;;;;;;5153071;23;20800;-83
2021/06/26 17:17:05;;;;;;;11.97;10.87;;;24.70;92.40;;;;;;5151712;23;20522;-83
2021/06/26 17:19:08;;;;;;;12.20;11.00;;;24.70;92.60;;;;;;5151096;23;20442;-83
2021/06/26 17:21:11;;;;;;;14.47;12.80;;;24.70;92.60;;;;;;5144218;23;20461;-83
2021/06/26 17:23:17;;;;;;;18.10;16.33;;;24.70;92.60;;;;;;5153760;23;20439;-82
2021/06/26 17:25:20;;;;;;;14.03;12.73;;;24.80;92.60;;;;;;5145386;23;20742;-83
2021/06/26 17:27:25;;;;;;;14.93;12.87;;;24.80;92.60;;;;;;5153136;23;20726;-83
2021/06/26 17:29:31;;;;;;;13.83;12.53;;;24.80;92.60;;;;;;5154640;23;21043;-83
2021/06/26 17:31:34;;;;;;;13.53;12.23;;;24.70;92.40;;;;;;5148710;23;20464;-82
2021/06/26 17:33:38;;;;;;;13.00;11.80;;;24.50;92.90;;;;;;5152374;23;21079;-82
2021/06/26 17:35:41;;;;;;;15.03;13.63;;;24.40;93.00;;;;;;5162666;23;20488;-82
2021/06/26 17:37:44;;;;;;;16.80;15.20;;;24.30;93.40;;;;;;5162735;23;20440;-82
2021/06/26 17:39:47;;;;;;;18.07;16.40;;;24.20;93.50;;;;;;5155722;23;20453;-82
2021/06/26 17:41:50;;;;;;;27.30;23.87;;;24.10;94.00;;;;;;5154463;23;20832;-83
2021/06/26 17:43:54;;;;;;;15.20;13.40;;;24.10;94.10;;;;;;5155718;23;20429;-83
2021/06/26 17:45:58;;;;;;;12.97;11.73;;;24.00;94.40;;;;;;5161777;23;20799;-83
2021/06/26 17:48:02;;;;;;;13.17;11.87;;;24.00;94.60;;;;;;5154395;23;20420;-82
2021/06/26 17:50:06;;;;;;;14.03;12.53;;;24.00;94.80;;;;;;5145285;23;20485;-82
2021/06/26 17:52:09;;;;;;;13.33;12.10;;;24.10;95.10;;;;;;5156888;23;20460;-82
2021/06/26 17:54:12;;;;;;;15.83;13.03;;;24.10;94.60;;;;;;5147861;23;20432;-82
2021/06/26 17:56:15;;;;;;;14.60;13.07;;;24.00;94.70;;;;;;5155209;23;20452;-82
2021/06/26 17:58:18;;;;;;;15.17;13.60;;;24.00;94.50;;;;;;5153688;23;20463;-82
2021/06/26 18:00:34;;;;;;;14.03;12.20;;;24.00;94.90;;;;;;5152623;23;20452;-83
2021/06/26 18:02:39;;;;;;;16.10;13.50;;;23.80;95.10;;;;;;5146402;23;20413;-82
2021/06/26 18:04:42;;;;;;;13.97;12.67;;;23.80;95.40;;;;;;5153606;23;20417;-82
2021/06/26 18:06:48;;;;;;;14.27;12.60;;;23.80;95.20;;;;;;5152973;23;20735;-83
2021/06/26 18:08:51;;;;;;;16.03;13.43;;;23.80;95.10;;;;;;5153117;23;20425;-83
2021/06/26 18:10:56;;;;;;;20.73;18.67;;;23.90;94.70;;;;;;5152426;23;20424;-82
2021/06/26 18:13:02;;;;;;;42.27;37.80;;;23.90;94.50;;;;;;5142820;23;20460;-83
2021/06/26 18:15:08;;;;;;;19.57;17.30;;;23.90;94.20;;;;;;5151759;23;20408;-82
2021/06/26 18:17:13;;;;;;;20.67;17.97;;;23.90;94.40;;;;;;5152253;23;20455;-83
2021/06/26 18:19:16;;;;;;;19.27;17.30;;;23.90;94.90;;;;;;5145055;23;20532;-83
2021/06/26 18:21:19;;;;;;;15.90;14.40;;;23.80;95.30;;;;;;5153915;23;20423;-83
2021/06/26 18:23:22;;;;;;;15.60;14.00;;;23.80;95.40;;;;;;5153918;23;20424;-82
2021/06/26 18:25:25;;;;;;;13.50;12.20;;;23.70;95.40;;;;;;5156926;23;20533;-82
2021/06/26 18:27:28;;;;;;;13.77;12.23;;;23.70;95.50;;;;;;5154481;23;20421;-82
2021/06/26 18:29:39;;;;;;;14.37;13.07;;;23.70;95.70;;;;;;5155683;23;20449;-83
2021/06/26 18:31:42;;;;;;;24.07;20.87;;;23.60;95.90;;;;;;5154321;23;20492;-83
2021/06/26 18:33:46;;;;;;;19.57;17.60;;;23.50;95.80;;;;;;5155741;23;20428;-83
2021/06/26 18:35:49;;;;;;;39.60;35.30;;;23.40;96.00;;;;;;5156607;23;20457;-84
2021/06/26 18:37:52;;;;;;;20.80;18.60;;;23.60;95.80;;;;;;5147089;23;20821;-83
2021/06/26 18:39:56;;;;;;;15.07;13.60;;;23.50;96.20;;;;;;5154909;23;20440;-84
2021/06/26 18:41:58;;;;;;;14.90;13.40;;;23.40;96.50;;;;;;5154059;23;20536;-83
2021/06/26 18:44:03;;;;;;;13.63;12.20;;;23.40;96.90;;;;;;5146737;23;20436;-83
2021/06/26 18:46:07;;;;;;;13.23;11.93;;;23.30;97.20;;;;;;5154962;23;20485;-84
2021/06/26 18:48:10;;;;;;;13.80;12.40;;;23.30;97.20;;;;;;5159280;23;21001;-83
2021/06/26 18:50:19;;;;;;;14.00;12.63;;;23.20;97.60;;;;;;5155211;23;20444;-83
2021/06/26 18:52:22;;;;;;;27.67;24.77;;;23.20;98.00;;;;;;5155900;23;20424;-83
2021/06/26 18:54:25;;;;;;;28.23;25.33;;;23.20;97.90;;;;;;5155284;23;20435;-83
2021/06/26 18:56:28;;;;;;;21.53;19.43;;;23.10;98.20;;;;;;5155815;23;20432;-83
2021/06/26 18:58:31;;;;;;;20.60;18.50;;;23.20;98.10;;;;;;5156691;23;20443;-82
2021/06/26 19:00:34;;;;;;;16.50;14.80;;;23.20;98.10;;;;;;5149434;23;20484;-84
2021/06/26 19:02:38;;;;;;;16.00;14.50;;;23.20;98.10;;;;;;5156955;23;20464;-84
2021/06/26 19:04:41;;;;;;;14.30;12.90;;;23.20;98.30;;;;;;5156425;23;20452;-83
2021/06/26 19:06:45;;;;;;;16.17;14.67;;;23.20;98.30;;;;;;5156365;23;20522;-82
2021/06/26 19:08:50;;;;;;;15.97;13.80;;;23.10;98.30;;;;;;5156017;23;20476;-82
2021/06/26 19:10:55;;;;;;;14.73;11.80;;;23.10;98.30;;;;;;5144952;23;20417;-83
2021/06/26 19:12:58;;;;;;;13.67;12.40;;;23.00;98.30;;;;;;5155129;23;20499;-83
2021/06/26 19:15:01;;;;;;;14.17;12.83;;;23.00;98.30;;;;;;5151605;23;20472;-83
2021/06/26 19:17:07;;;;;;;12.97;11.83;;;23.00;98.30;;;;;;5143981;23;20540;-83
2021/06/26 19:19:10;;;;;;;14.43;12.93;;;23.00;98.30;;;;;;5152206;23;20479;-83
2021/06/26 19:21:14;;;;;;;12.83;11.63;;;22.90;98.30;;;;;;5142951;23;20492;-85
2021/06/26 19:23:19;;;;;;;13.83;12.07;;;23.00;98.30;;;;;;5153114;23;20402;-82
2021/06/26 19:25:22;;;;;;;15.33;12.43;;;23.00;98.30;;;;;;5154250;23;20454;-83
2021/06/26 19:27:27;;;;;;;13.17;11.87;;;22.90;98.30;;;;;;5156812;23;20492;-82
2021/06/26 19:29:30;;;;;;;16.53;12.97;;;22.80;98.30;;;;;;5155382;23;20524;-82
2021/06/26 19:31:33;;;;;;;27.80;24.90;;;22.80;98.30;;;;;;5157876;23;20455;-83
2021/06/26 19:33:36;;;;;;;43.73;36.27;;;22.80;98.30;;;;;;5146973;23;20776;-84
2021/06/26 19:35:40;;;;;;;47.97;42.53;;;22.70;98.30;;;;;;5154708;23;20894;-82
2021/06/26 19:37:43;;;;;;;30.90;27.73;;;22.70;98.30;;;;;;5156613;23;20427;-82
2021/06/26 19:39:47;;;;;;;69.93;57.43;;;22.60;98.30;;;;;;5156627;23;20761;-82
2021/06/26 19:41:50;;;;;;;155.73;137.40;;;22.70;98.30;;;;;;5147380;23;20935;-82
2021/06/26 19:43:54;;;;;;;55.67;46.87;;;22.70;98.30;;;;;;5156628;23;20417;-82
2021/06/26 19:45:57;;;;;;;25.53;20.93;;;22.60;98.30;;;;;;5155601;23;20431;-81
2021/06/26 19:48:03;;;;;;;19.23;16.13;;;22.60;98.30;;;;;;5148668;23;20436;-82
2021/06/26 19:50:07;;;;;;;15.20;13.70;;;22.60;98.30;;;;;;5149265;23;20449;-82
2021/06/26 19:52:10;;;;;;;15.90;14.10;;;22.50;98.30;;;;;;5155835;23;20802;-82
2021/06/26 19:54:13;;;;;;;14.20;12.83;;;22.50;98.30;;;;;;5157763;23;20891;-82
2021/06/26 19:56:19;;;;;;;16.57;13.57;;;22.40;98.30;;;;;;5158656;23;20421;-82
2021/06/26 19:58:24;;;;;;;14.70;13.17;;;22.40;98.30;;;;;;5156277;23;20486;-81
2021/06/26 20:00:27;;;;;;;13.83;12.60;;;22.40;98.30;;;;;;5158217;23;20490;-84
2021/06/26 20:02:33;;;;;;;15.67;13.93;;;22.40;98.30;;;;;;5147987;23;20418;-82
2021/06/26 20:04:37;;;;;;;32.07;26.33;;;22.30;98.30;;;;;;5159910;23;20424;-83
2021/06/26 20:06:40;;;;;;;57.97;48.50;;;22.30;98.30;;;;;;5156082;23;20471;-83
2021/06/26 20:08:44;;;;;;;54.73;43.23;;;22.30;98.30;;;;;;5157654;23;20755;-85
2021/06/26 20:10:48;;;;;;;44.53;38.20;;;22.30;98.30;;;;;;5158114;23;20504;-81
2021/06/26 20:12:53;;;;;;;25.47;22.73;;;22.30;98.30;;;;;;5157984;23;20445;-85
2021/06/26 20:14:56;;;;;;;18.17;16.43;;;22.30;98.30;;;;;;5149281;23;20428;-83
2021/06/26 20:17:01;;;;;;;17.13;15.43;;;22.30;98.30;;;;;;5157387;23;20425;-82
2021/06/26 20:19:04;;;;;;;18.33;16.30;;;22.20;98.30;;;;;;5157520;23;20863;-82
2021/06/26 20:21:07;;;;;;;22.17;19.83;;;22.20;98.30;;;;;;5156624;23;20799;-82
2021/06/26 20:23:10;;;;;;;21.43;19.17;;;22.10;98.30;;;;;;5152255;23;20463;-82
2021/06/26 20:25:14;;;;;;;19.43;17.47;;;22.10;98.30;;;;;;5159970;23;20426;-85
2021/06/26 20:27:17;;;;;;;20.00;17.87;;;22.10;98.30;;;;;;5159235;23;20448;-82
2021/06/26 20:29:22;;;;;;;23.40;21.00;;;22.10;98.30;;;;;;5160216;23;20433;-82
2021/06/26 20:31:25;;;;;;;18.90;16.90;;;22.10;98.30;;;;;;5159009;23;20493;-82
2021/06/26 20:33:28;;;;;;;17.00;15.17;;;22.00;98.30;;;;;;5151897;23;20487;-81
2021/06/26 20:35:31;;;;;;;18.77;16.67;;;22.00;98.30;;;;;;5161176;23;20501;-82
2021/06/26 20:37:34;;;;;;;20.43;18.27;;;22.00;98.30;;;;;;5160285;23;20492;-82
2021/06/26 20:39:37;;;;;;;17.43;15.73;;;21.90;98.30;;;;;;5152067;23;20483;-83
2021/06/26 20:41:40;;;;;;;17.70;15.93;;;21.80;98.30;;;;;;5153811;23;20429;-81
2021/06/26 20:43:43;;;;;;;20.03;16.77;;;21.90;98.30;;;;;;5160056;23;20433;-82
2021/06/26 20:45:48;;;;;;;18.63;16.67;;;22.00;98.30;;;;;;5159227;23;20432;-82
2021/06/26 20:47:53;;;;;;;24.97;22.40;;;22.00;98.30;;;;;;5159722;23;20924;-82
2021/06/26 20:49:56;;;;;;;26.80;23.70;;;21.90;98.30;;;;;;5159695;23;20436;-82
2021/06/26 20:52:01;;;;;;;27.60;24.30;;;21.90;98.30;;;;;;5153343;23;20790;-83
2021/06/26 20:54:05;;;;;;;22.97;19.70;;;22.00;98.30;;;;;;5153178;23;20437;-82
2021/06/26 20:56:08;;;;;;;19.30;17.30;;;21.90;98.30;;;;;;5161151;23;20421;-82
2021/06/26 20:58:13;;;;;;;19.90;15.93;;;21.90;98.30;;;;;;5168189;23;20425;-82
2021/06/26 21:04:51;;;;;;;18.90;16.20;;;21.90;98.30;;;;;;5160022;22;20521;-82
2021/06/26 21:06:54;;;;;;;18.23;16.40;;;21.70;98.30;;;;;;5170789;23;20490;-82
2021/06/26 21:08:57;;;;;;;17.10;14.90;;;21.70;98.30;;;;;;5179434;23;20497;-82
2021/06/26 21:11:00;;;;;;;18.80;16.80;;;21.70;98.30;;;;;;5179064;22;20443;-82
2021/06/26 21:13:03;;;;;;;19.53;17.60;;;21.60;98.30;;;;;;5180594;23;20749;-82
2021/06/26 21:15:07;;;;;;;18.07;16.17;;;21.60;98.30;;;;;;5179326;23;20492;-82
2021/06/26 21:17:10;;;;;;;17.70;15.93;;;21.50;98.30;;;;;;5179715;23;20417;-82
2021/06/26 21:19:13;;;;;;;19.53;16.87;;;21.50;98.30;;;;;;5171061;23;20497;-82
2021/06/26 21:21:17;;;;;;;17.03;15.33;;;21.50;98.30;;;;;;5170558;22;20454;-82
2021/06/26 21:23:20;;;;;;;19.27;17.37;;;21.60;98.30;;;;;;5171386;23;20428;-82
2021/06/26 21:25:23;;;;;;;32.90;29.10;;;21.60;98.30;;;;;;5171087;23;20424;-81
2021/06/26 21:27:26;;;;;;;44.80;33.87;;;21.50;98.30;;;;;;5170708;23;20439;-81
2021/06/26 21:29:29;;;;;;;24.60;21.47;;;21.50;98.30;;;;;;5171168;23;20478;-82
2021/06/26 21:31:32;;;;;;;19.27;17.17;;;21.30;98.30;;;;;;5170566;23;20428;-81
2021/06/26 21:33:35;;;;;;;18.67;16.60;;;21.30;98.30;;;;;;5179531;23;20447;-82
2021/06/26 21:35:38;;;;;;;19.13;16.70;;;21.20;98.30;;;;;;5172532;23;20432;-81
2021/06/26 21:37:43;;;;;;;17.90;16.20;;;21.20;98.30;;;;;;5181184;23;20744;-82
2021/06/26 21:39:46;;;;;;;18.47;15.57;;;21.10;98.30;;;;;;5182015;22;20988;-82
2021/06/26 21:41:49;;;;;;;18.23;16.30;;;21.10;98.30;;;;;;5182809;23;20470;-82
2021/06/26 21:43:52;;;;;;;18.80;16.57;;;21.10;98.30;;;;;;5171167;23;20931;-81
2021/06/26 21:45:55;;;;;;;21.07;18.13;;;21.10;98.30;;;;;;5178699;23;20469;-82
2021/06/26 21:47:58;;;;;;;18.70;16.80;;;21.10;98.30;;;;;;5170881;23;20434;-82
2021/06/26 21:50:01;;;;;;;18.10;16.10;;;21.00;98.30;;;;;;5179088;22;20444;-82
2021/06/26 21:52:04;;;;;;;17.97;16.07;;;20.90;98.30;;;;;;5168251;23;20428;-82
2021/06/26 21:54:09;;;;;;;18.57;16.67;;;20.90;98.30;;;;;;5182723;23;20426;-82
2021/06/26 21:56:21;;;;;;;18.57;16.63;;;20.80;98.30;;;;;;5173914;23;20432;-81
2021/06/26 21:58:24;;;;;;;20.80;16.30;;;20.70;98.30;;;;;;5181190;23;20506;-82
2021/06/26 22:00:55;;;;;;;19.80;17.37;;;20.50;98.30;;;;;;5179387;22;20501;-81
2021/06/26 22:02:58;;;;;;;20.50;18.30;;;20.50;98.30;;;;;;5180133;23;20397;-81
2021/06/26 22:05:01;;;;;;;19.40;17.40;;;20.30;98.30;;;;;;5171559;23;20431;-82
2021/06/26 22:07:04;;;;;;;19.33;16.57;;;20.30;98.30;;;;;;5169998;23;20974;-82
2021/06/26 22:09:10;;;;;;;19.90;17.73;;;20.20;98.30;;;;;;5177905;23;20424;-83
2021/06/26 22:11:13;;;;;;;19.10;17.20;;;20.20;98.30;;;;;;5178479;22;20436;-82
2021/06/26 22:13:17;;;;;;;19.30;17.43;;;20.20;98.30;;;;;;5179551;23;20412;-82
2021/06/26 22:15:20;;;;;;;18.37;16.47;;;20.20;98.30;;;;;;5171408;23;20420;-81
2021/06/26 22:17:28;;;;;;;20.87;16.53;;;20.30;98.30;;;;;;5171664;23;20446;-81
2021/06/26 22:19:31;;;;;;;19.07;17.07;;;20.30;98.30;;;;;;5180767;22;20399;-82
2021/06/26 22:21:35;;;;;;;20.00;17.90;;;20.30;98.30;;;;;;5172770;23;20482;-82
2021/06/26 22:23:38;;;;;;;18.10;16.20;;;20.30;98.30;;;;;;5173690;23;20824;-81
2021/06/26 22:25:43;;;;;;;18.33;16.37;;;20.20;98.30;;;;;;5175004;23;20758;-81
2021/06/26 22:27:46;;;;;;;19.63;16.97;;;20.20;98.30;;;;;;5181454;23;20430;-82
2021/06/26 22:29:49;;;;;;;19.97;17.90;;;20.20;98.30;;;;;;5173515;22;20805;-81
2021/06/26 22:31:52;;;;;;;19.07;17.10;;;20.10;98.30;;;;;;5187038;23;20423;-81
2021/06/26 22:33:55;;;;;;;18.07;16.17;;;20.20;98.30;;;;;;5178093;23;20428;-81
2021/06/26 22:35:58;;;;;;;21.07;18.83;;;20.10;98.30;;;;;;5187318;23;20412;-81
2021/06/26 22:38:01;;;;;;;18.83;16.90;;;20.10;98.30;;;;;;5178016;23;20432;-81
2021/06/26 22:40:05;;;;;;;20.17;18.07;;;20.10;98.30;;;;;;5184763;22;20471;-81
2021/06/26 22:42:10;;;;;;;19.47;17.53;;;20.10;98.30;;;;;;5188713;23;20416;-81
2021/06/26 22:44:13;;;;;;;18.27;16.40;;;20.10;98.30;;;;;;5180959;23;20424;-81
2021/06/26 22:46:16;;;;;;;19.47;17.00;;;20.00;98.30;;;;;;5188867;23;20420;-81
2021/06/26 22:48:19;;;;;;;19.37;17.50;;;20.00;98.30;;;;;;5177252;23;20424;-82
2021/06/26 22:50:24;;;;;;;16.57;15.00;;;20.00;98.30;;;;;;5176904;22;20451;-82
2021/06/26 22:52:27;;;;;;;19.53;17.60;;;20.00;98.30;;;;;;5177611;23;20474;-81
2021/06/26 22:54:30;;;;;;;17.67;16.00;;;20.00;98.30;;;;;;5186463;23;20783;-82
2021/06/26 22:56:32;;;;;;;19.37;16.93;;;19.90;98.30;;;;;;5177940;23;20481;-82
2021/06/26 22:58:37;;;;;;;20.63;18.70;;;19.90;98.30;;;;;;5185036;23;20427;-81
2021/06/26 23:00:43;;;;;;;18.17;16.40;;;19.90;98.30;;;;;;5184384;22;20450;-82
2021/06/26 23:02:46;;;;;;;18.93;17.00;;;19.90;98.30;;;;;;5183794;23;20400;-81
2021/06/26 23:04:49;;;;;;;19.53;17.27;;;19.90;98.30;;;;;;5174559;23;20432;-81
2021/06/26 23:06:52;;;;;;;18.73;16.83;;;19.90;98.30;;;;;;5175839;23;20440;-81
2021/06/26 23:08:55;;;;;;;17.83;16.13;;;20.00;98.30;;;;;;5176086;23;20436;-81
2021/06/26 23:11:01;;;;;;;17.83;16.10;;;19.90;98.30;;;;;;5181796;22;20515;-81
2021/06/26 23:13:03;;;;;;;17.67;15.97;;;20.00;98.30;;;;;;5173487;23;20816;-81
2021/06/26 23:15:10;;;;;;;18.20;16.30;;;19.90;98.30;;;;;;5173493;23;20816;-81
2021/06/26 23:17:13;;;;;;;18.20;16.30;;;19.90;98.30;;;;;;5174155;23;20408;-80
2021/06/26 23:19:16;;;;;;;17.80;16.07;;;19.90;98.30;;;;;;5184050;23;20412;-81
2021/06/26 23:21:20;;;;;;;18.90;16.90;;;19.80;98.30;;;;;;5183597;22;20439;-81
2021/06/26 23:23:24;;;;;;;18.80;17.00;;;19.70;98.30;;;;;;5176275;23;20428;-81
2021/06/26 23:25:27;;;;;;;18.50;16.80;;;19.70;98.30;;;;;;5177117;23;20427;-81
2021/06/26 23:27:30;;;;;;;18.97;16.77;;;19.60;98.30;;;;;;5174125;23;20431;-81
2021/06/26 23:29:34;;;;;;;20.50;18.50;;;19.60;98.30;;;;;;5178097;22;20424;-81
2021/06/26 23:31:38;;;;;;;19.50;16.07;;;19.50;98.30;;;;;;5170102;23;20425;-81